Armstrong Creek, Wisconsin
Current Conditions -  °F | °C
As of 10:54 AM on Saturday 25 Oct 2014 (Local Time) from KIMT Reporting Station
Clear Clear  
Wind Chill: 57°   Ceiling: Unl
Heat Index: 57°   Visibility: 10mi
Dew Point: 32°   Wind: 20mph
Humidity: 39%   Direction: 290°WNW
Pressure: 29.76"   Gusts: 33mph
Location:  45.66°N, 88.45°W
Report Text: KIMT 251554Z AUTO 29017G29KT 10SM CLR 14/00 A2976 RMK AO2 PK WND 30032/1533 SLP081 T01390000
Loading
Personal Weather Stations






























Interactive Weather Map New forecast layout! Learn more

10-Day Weather Forecast

Advertisements
Track Severe Weather on mobile